createdAt,value
2022-12-11T00:01:25.899Z,97061.28
2022-12-11T00:03:53.439Z,97063.22
2022-12-11T00:06:23.583Z,97068.94
2022-12-11T00:08:53.849Z,97066.00
2022-12-11T00:11:22.675Z,97074.31
2022-12-11T00:13:50.623Z,97067.47
2022-12-11T00:16:23.734Z,97074.31
2022-12-11T00:18:54.754Z,97067.94
2022-12-11T00:21:22.314Z,97066.31
2022-12-11T00:23:49.804Z,97061.44
2022-12-11T00:26:17.805Z,97053.28
2022-12-11T00:28:45.977Z,97057.69
2022-12-11T00:31:17.100Z,97052.94
2022-12-11T00:33:45.890Z,97057.50
2022-12-11T00:36:22.284Z,97056.22
2022-12-11T00:38:50.504Z,97053.13
2022-12-11T00:41:18.102Z,97058.00
2022-12-11T00:43:45.762Z,97065.03
2022-12-11T00:46:13.738Z,97061.94
2022-12-11T00:48:41.202Z,97065.19
2022-12-11T00:51:08.822Z,97063.06
2022-12-11T00:53:37.300Z,97059.00
2022-12-11T00:56:17.334Z,97062.41
2022-12-11T00:58:45.747Z,97058.66
2022-12-11T01:01:16.842Z,97062.13
2022-12-11T01:03:44.633Z,97067.00
2022-12-11T01:06:17.696Z,97065.03
2022-12-11T01:08:45.954Z,97064.06
2022-12-11T01:11:15.864Z,97063.72
2022-12-11T01:13:43.782Z,97063.44
2022-12-11T01:16:14.334Z,97060.63
2022-12-11T01:18:41.953Z,97065.22
2022-12-11T01:21:12.307Z,97072.22
2022-12-11T01:23:40.730Z,97058.84
2022-12-11T01:26:10.803Z,97064.53
2022-12-11T01:28:38.993Z,97060.16
2022-12-11T01:31:11.473Z,97061.47
2022-12-11T01:33:40.111Z,97066.69
2022-12-11T01:36:14.302Z,97067.63
2022-12-11T01:38:42.026Z,97076.78
2022-12-11T01:41:10.405Z,97078.75
2022-12-11T01:44:01.124Z,97074.34
2022-12-11T01:46:30.479Z,97078.75
2022-12-11T01:48:58.903Z,97077.59
2022-12-11T01:51:29.660Z,97067.31
2022-12-11T01:54:00.903Z,97077.56
2022-12-11T01:56:32.514Z,97071.72
2022-12-11T01:59:07.214Z,97071.41
2022-12-11T02:01:40.480Z,97060.81
2022-12-11T02:04:09.743Z,97068.13
2022-12-11T02:06:39.024Z,97068.97
2022-12-11T02:09:10.893Z,97069.44
2022-12-11T02:12:07.633Z,97063.59
2022-12-11T02:15:01.284Z,97062.91
2022-12-11T02:17:37.950Z,97064.06
2022-12-11T02:20:43.465Z,97056.41
2022-12-11T02:23:16.950Z,97061.59
2022-12-11T02:25:52.574Z,97066.50
2022-12-11T02:29:01.994Z,97068.00
2022-12-11T02:31:38.446Z,97056.56
2022-12-11T02:34:10.594Z,97051.66
2022-12-11T02:36:45.519Z,97054.44
2022-12-11T02:39:16.097Z,97056.09
2022-12-11T02:41:50.152Z,97051.50
2022-12-11T02:44:22.592Z,97056.25
2022-12-11T02:46:52.293Z,97057.72
2022-12-11T02:49:22.505Z,97061.47
2022-12-11T02:51:51.844Z,97056.56
2022-12-11T02:54:24.815Z,97055.75
2022-12-11T02:57:00.466Z,97055.25
2022-12-11T02:59:38.204Z,97053.78
2022-12-11T03:02:06.084Z,97047.28
2022-12-11T03:04:36.417Z,97046.63
2022-12-11T03:07:14.877Z,97052.00
2022-12-11T03:09:44.683Z,97054.09
2022-12-11T03:12:16.813Z,97052.81
2022-12-11T03:14:44.768Z,97052.81
2022-12-11T03:17:41.103Z,97052.81
2022-12-11T03:20:40.347Z,97053.47
2022-12-11T03:23:30.776Z,97054.31
2022-12-11T03:26:16.732Z,97058.69
2022-12-11T03:28:58.520Z,97057.69
2022-12-11T03:31:35.904Z,97055.09
2022-12-11T03:34:10.752Z,97056.75
2022-12-11T03:36:40.149Z,97056.41
2022-12-11T03:39:12.969Z,97055.09
2022-12-11T03:41:44.273Z,97055.09
2022-12-11T03:44:12.973Z,97058.88
2022-12-11T03:46:43.626Z,97056.41
2022-12-11T03:49:24.823Z,97062.28
2022-12-11T03:51:56.603Z,97060.63
2022-12-11T03:54:25.091Z,97063.44
2022-12-11T03:56:57.334Z,97057.38
2022-12-11T03:59:25.173Z,97057.69
2022-12-11T04:01:52.845Z,97054.47
2022-12-11T04:04:20.779Z,97053.47
2022-12-11T04:06:48.364Z,97056.06
2022-12-11T04:09:15.924Z,97055.28
2022-12-11T04:11:43.529Z,97057.22
2022-12-11T04:14:32.052Z,97058.03
2022-12-11T04:17:00.869Z,97056.72
2022-12-11T04:19:47.383Z,97065.84
2022-12-11T04:22:35.855Z,97060.47
2022-12-11T04:25:05.893Z,97063.22
2022-12-11T04:27:51.494Z,97066.00
2022-12-11T04:30:29.416Z,97072.19
2022-12-11T04:33:01.632Z,97068.94
2022-12-11T04:35:29.144Z,97071.69
2022-12-11T04:37:56.733Z,97073.00
2022-12-11T04:40:24.363Z,97069.09
2022-12-11T04:42:51.939Z,97061.72
2022-12-11T04:45:19.573Z,97058.63
2022-12-11T04:47:47.444Z,97055.06
2022-12-11T04:50:15.565Z,97052.44
2022-12-11T04:52:43.244Z,97054.41
2022-12-11T04:55:12.174Z,97068.78
2022-12-11T04:57:39.896Z,97057.19
2022-12-11T05:00:10.583Z,97050.19
2022-12-11T05:02:41.941Z,97052.16
2022-12-11T05:05:11.408Z,97051.00
2022-12-11T05:07:39.039Z,97048.88
2022-12-11T05:10:07.213Z,97052.13
2022-12-11T05:12:34.722Z,97044.31
2022-12-11T05:15:02.676Z,97038.28
2022-12-11T05:17:30.192Z,97038.28
2022-12-11T05:19:57.639Z,97040.06
2022-12-11T05:26:31.965Z,97034.22
2022-12-11T05:28:59.505Z,97037.13
2022-12-11T05:31:28.112Z,97031.59
2022-12-11T05:33:55.649Z,97031.28
2022-12-11T05:36:32.163Z,97030.63
2022-12-11T05:39:01.474Z,97034.22
2022-12-11T05:41:31.159Z,97030.75
2022-12-11T05:43:59.009Z,97030.28
2022-12-11T05:46:29.269Z,97024.91
2022-12-11T05:49:02.124Z,97025.22
2022-12-11T05:51:30.371Z,97019.69
2022-12-11T05:53:58.464Z,97020.84
2022-12-11T05:56:28.747Z,97024.44
2022-12-11T05:58:57.368Z,97023.44
2022-12-11T06:01:28.585Z,97026.06
2022-12-11T06:03:57.144Z,97026.72
2022-12-11T06:06:25.887Z,97029.16
2022-12-11T06:08:55.689Z,97021.34
2022-12-11T06:11:25.272Z,97018.75
2022-12-11T06:13:53.524Z,97013.34
2022-12-11T06:16:22.520Z,97022.50
2022-12-11T06:18:50.467Z,97026.72
2022-12-11T06:21:30.468Z,97022.31
2022-12-11T06:24:01.127Z,97025.59
2022-12-11T06:26:29.367Z,97029.34
2022-12-11T06:28:57.022Z,97023.78
2022-12-11T06:31:24.839Z,97022.16
2022-12-11T06:33:52.370Z,97019.38
2022-12-11T06:36:23.489Z,97025.44
2022-12-11T06:38:52.660Z,97026.06
2022-12-11T06:41:20.227Z,97023.44
2022-12-11T06:43:47.869Z,97027.84
2022-12-11T06:46:18.744Z,97032.59
2022-12-11T06:48:48.292Z,97036.81
2022-12-11T06:51:18.426Z,97033.25
2022-12-11T06:53:51.149Z,97033.38
2022-12-11T06:56:18.767Z,97043.47
2022-12-11T06:58:46.432Z,97042.03
2022-12-11T07:01:19.824Z,97050.47
2022-12-11T07:03:47.910Z,97046.25
2022-12-11T07:06:16.466Z,97046.91
2022-12-11T07:08:44.387Z,97048.69
2022-12-11T07:11:14.707Z,97058.31
2022-12-11T07:13:42.930Z,97053.09
2022-12-11T07:16:12.662Z,97053.91
2022-12-11T07:18:41.928Z,97053.41
2022-12-11T07:21:12.108Z,97057.66
2022-12-11T07:23:40.408Z,97048.84
2022-12-11T07:26:13.530Z,97049.63
2022-12-11T07:28:41.568Z,97054.50
2022-12-11T07:31:12.335Z,97054.00
2022-12-11T07:33:40.410Z,97058.91
2022-12-11T07:36:10.249Z,97057.09
2022-12-11T07:38:38.125Z,97059.72
2022-12-11T07:41:08.367Z,97058.25
2022-12-11T07:43:37.009Z,97061.16
2022-12-11T07:46:07.758Z,97061.97
2022-12-11T07:48:40.668Z,97066.38
2022-12-11T07:51:20.806Z,97063.47
2022-12-11T07:53:50.181Z,97062.03
2022-12-11T07:56:19.181Z,97064.97
2022-12-11T07:58:47.222Z,97064.81
2022-12-11T08:01:26.270Z,97061.22
2022-12-11T08:03:55.567Z,97065.97
2022-12-11T08:06:29.358Z,97063.22
2022-12-11T08:08:58.305Z,97065.16
2022-12-11T08:11:26.910Z,97063.88
2022-12-11T08:13:55.310Z,97067.63
2022-12-11T08:16:23.235Z,97068.56
2022-12-11T08:18:51.189Z,97057.84
2022-12-11T08:21:24.088Z,97056.19
2022-12-11T08:23:53.199Z,97065.31
2022-12-11T08:26:24.128Z,97057.34
2022-12-11T08:28:51.945Z,97065.38
2022-12-11T08:31:20.074Z,97055.91
2022-12-11T08:33:48.948Z,97064.88
2022-12-11T08:36:19.820Z,97058.19
2022-12-11T08:38:47.579Z,97063.88
2022-12-11T08:41:20.257Z,97064.88
2022-12-11T08:43:48.568Z,97059.66
2022-12-11T08:46:16.461Z,97057.84
2022-12-11T08:48:44.252Z,97057.34
2022-12-11T08:51:15.167Z,97059.16
2022-12-11T08:53:43.737Z,97057.69
2022-12-11T08:56:14.719Z,97052.47
2022-12-11T08:58:43.159Z,97056.72
2022-12-11T09:01:14.672Z,97050.69
2022-12-11T09:03:42.543Z,97055.75
2022-12-11T09:06:12.840Z,97056.59
2022-12-11T09:08:41.188Z,97052.81
2022-12-11T09:11:11.521Z,97055.41
2022-12-11T09:13:40.215Z,97060.97
2022-12-11T09:16:10.471Z,97063.59
2022-12-11T09:18:39.389Z,97058.84
2022-12-11T09:21:10.344Z,97058.22
2022-12-11T09:23:38.070Z,97064.41
2022-12-11T09:26:11.873Z,97062.78
2022-12-11T09:28:45.715Z,97058.53
2022-12-11T09:31:26.233Z,97060.50
2022-12-11T09:34:00.378Z,97064.06
2022-12-11T09:36:28.176Z,97064.06
2022-12-11T09:38:55.907Z,97064.06
2022-12-11T09:41:23.347Z,97064.69
2022-12-11T09:44:15.070Z,97059.16
2022-12-11T09:46:43.615Z,97059.16
2022-12-11T09:49:38.378Z,97055.22
2022-12-11T09:52:14.784Z,97055.22
2022-12-11T09:54:49.419Z,97055.75
2022-12-11T09:57:43.135Z,97055.91
2022-12-11T10:00:35.227Z,97055.09
2022-12-11T10:03:20.793Z,97056.38
2022-12-11T10:06:05.025Z,97045.00
2022-12-11T10:09:03.566Z,97044.00
2022-12-11T10:11:48.293Z,97046.94
2022-12-11T10:14:39.153Z,97046.81
2022-12-11T10:17:20.916Z,97029.19
2022-12-11T10:19:49.115Z,97024.78
2022-12-11T10:22:24.298Z,97033.09
2022-12-11T10:25:12.778Z,97019.88
2022-12-11T10:27:41.104Z,97022.00
2022-12-11T10:30:16.691Z,97027.06
2022-12-11T10:32:51.498Z,97030.31
2022-12-11T10:35:44.057Z,97023.97
2022-12-11T10:38:21.958Z,97021.84
2022-12-11T10:40:57.535Z,97023.81
2022-12-11T10:43:35.071Z,97019.88
2022-12-11T10:46:03.416Z,97017.59
2022-12-11T10:48:30.918Z,97017.94
2022-12-11T10:51:04.644Z,97014.84
2022-12-11T10:53:34.893Z,97006.00
2022-12-11T10:56:02.745Z,97001.59
2022-12-11T10:58:34.391Z,96998.31
2022-12-11T11:01:17.337Z,96998.78
2022-12-11T11:03:58.919Z,96995.66
2022-12-11T11:06:27.407Z,96987.53
2022-12-11T11:09:01.449Z,96977.22
2022-12-11T11:11:33.809Z,96975.41
2022-12-11T11:14:20.098Z,96978.63
2022-12-11T11:16:50.356Z,96980.56
2022-12-11T11:19:35.210Z,96974.84
2022-12-11T11:22:07.658Z,96976.25
2022-12-11T11:24:35.109Z,96973.53
2022-12-11T11:27:18.530Z,96974.53
2022-12-11T11:29:51.589Z,96978.97
2022-12-11T11:32:32.597Z,96975.66
2022-12-11T11:35:12.711Z,96963.59
2022-12-11T11:37:45.589Z,96956.22
2022-12-11T11:40:28.267Z,96963.97
2022-12-11T11:42:58.397Z,96961.91
2022-12-11T11:45:34.568Z,96960.78
2022-12-11T11:48:36.499Z,96956.50
2022-12-11T11:51:15.039Z,96947.06
2022-12-11T11:53:48.123Z,96948.66
2022-12-11T11:56:35.216Z,96942.50
2022-12-11T11:59:40.668Z,96943.97
2022-12-11T12:02:16.514Z,96939.22
2022-12-11T12:04:46.318Z,96940.19
2022-12-11T12:07:44.923Z,96935.31
2022-12-11T12:10:43.088Z,96939.88
2022-12-11T12:13:47.666Z,96931.25
2022-12-11T12:16:22.891Z,96935.16
2022-12-11T12:19:07.948Z,96930.94
2022-12-11T12:21:39.071Z,96946.94
2022-12-11T12:24:06.858Z,96946.38
2022-12-11T12:26:41.447Z,96947.44
2022-12-11T12:29:08.923Z,96944.78
2022-12-11T12:32:20.747Z,96941.13
2022-12-11T12:35:14.592Z,96933.75
2022-12-11T12:37:54.917Z,96936.47
2022-12-11T12:40:49.920Z,96926.91
2022-12-11T12:43:38.917Z,96927.41
2022-12-11T12:46:40.398Z,96934.72
2022-12-11T12:49:12.794Z,96924.91
2022-12-11T12:51:41.842Z,96916.75
2022-12-11T12:54:16.700Z,96915.34
2022-12-11T12:56:47.157Z,96919.94
2022-12-11T12:59:26.132Z,96916.06
2022-12-11T13:02:00.114Z,96913.16
2022-12-11T13:04:56.095Z,96908.19
2022-12-11T13:07:30.178Z,96911.00
2022-12-11T13:10:23.466Z,96913.81
2022-12-11T13:12:51.737Z,96914.31
2022-12-11T13:15:26.777Z,96910.56
2022-12-11T13:17:54.448Z,96911.38
2022-12-11T13:20:34.318Z,96909.09
2022-12-11T13:23:07.693Z,96902.09
2022-12-11T13:25:56.386Z,96916.09
2022-12-11T13:28:43.713Z,96912.84
2022-12-11T13:31:14.359Z,96908.47
2022-12-11T13:33:46.049Z,96917.41
2022-12-11T13:36:18.921Z,96925.22
2022-12-11T13:38:56.067Z,96926.06
2022-12-11T13:41:24.853Z,96926.22
2022-12-11T13:43:53.596Z,96927.97
2022-12-11T13:46:27.098Z,96930.25
2022-12-11T13:49:05.030Z,96933.69
2022-12-11T13:51:36.216Z,96942.66
2022-12-11T13:54:17.954Z,96937.47
2022-12-11T13:57:08.236Z,96939.06
2022-12-11T13:59:43.786Z,96931.56
2022-12-11T14:02:46.757Z,96937.75
2022-12-11T14:05:15.617Z,96940.19
2022-12-11T14:07:48.120Z,96945.91
2022-12-11T14:10:19.923Z,96928.78
2022-12-11T14:12:57.358Z,96934.53
2022-12-11T14:15:26.427Z,96928.66
2022-12-11T14:17:54.959Z,96931.22
2022-12-11T14:20:28.915Z,96932.88
2022-12-11T14:23:32.922Z,96927.16
2022-12-11T14:26:21.215Z,96923.56
2022-12-11T14:28:48.968Z,96934.78
2022-12-11T14:31:22.822Z,96938.69
2022-12-11T14:34:03.179Z,96928.75
2022-12-11T14:36:31.897Z,96933.34
2022-12-11T14:39:06.541Z,96937.91
2022-12-11T14:41:33.961Z,96937.91
2022-12-11T14:44:07.044Z,96943.28
2022-12-11T14:46:43.998Z,96938.69
2022-12-11T14:49:40.609Z,96941.81
2022-12-11T14:52:32.696Z,96944.41
2022-12-11T14:55:07.821Z,96941.63
2022-12-11T14:57:36.699Z,96943.44
2022-12-11T15:00:05.778Z,96939.97
2022-12-11T15:02:36.465Z,96948.13
2022-12-11T15:05:10.747Z,96945.66
2022-12-11T15:07:38.358Z,96948.25
2022-12-11T15:10:05.916Z,96952.03
2022-12-11T15:12:33.676Z,96949.38
2022-12-11T15:15:06.186Z,96948.91
2022-12-11T15:17:37.452Z,96947.09
2022-12-11T15:20:23.397Z,96944.50
2022-12-11T15:22:51.727Z,96947.59
2022-12-11T15:25:25.130Z,96952.44
2022-12-11T15:27:55.292Z,96955.53
2022-12-11T15:30:29.082Z,96948.72
2022-12-11T15:33:11.845Z,96952.31
2022-12-11T15:35:40.746Z,96947.72
2022-12-11T15:38:27.848Z,96939.91
2022-12-11T15:40:56.758Z,96941.72
2022-12-11T15:43:24.718Z,96947.41
2022-12-11T15:45:52.441Z,96951.16
2022-12-11T15:48:20.054Z,96947.03
2022-12-11T15:50:47.576Z,96942.34
2022-12-11T15:53:15.037Z,96948.84
2022-12-11T15:55:42.514Z,96951.59
2022-12-11T15:58:15.958Z,96955.19
2022-12-11T16:00:43.478Z,96948.19
2022-12-11T16:03:15.714Z,96951.91
2022-12-11T16:05:43.807Z,96961.06
2022-12-11T16:08:16.534Z,96961.38
2022-12-11T16:10:45.208Z,96962.84
2022-12-11T16:13:13.487Z,96964.47
2022-12-11T16:15:44.062Z,96959.75
2022-12-11T16:18:15.707Z,96965.94
2022-12-11T16:20:45.157Z,96966.09
2022-12-11T16:23:14.538Z,96967.44
2022-12-11T16:25:43.528Z,96965.78
2022-12-11T16:28:12.976Z,96962.22
2022-12-11T16:30:40.920Z,96958.94
2022-12-11T16:33:12.423Z,96963.50
2022-12-11T16:35:42.909Z,96964.28
2022-12-11T16:38:11.433Z,96956.16
2022-12-11T16:40:39.458Z,96956.25
2022-12-11T16:43:06.955Z,96962.63
2022-12-11T16:45:34.485Z,96961.31
2022-12-11T16:48:05.791Z,96961.03
2022-12-11T16:50:33.485Z,96959.41
2022-12-11T16:53:00.916Z,96955.00
2022-12-11T16:55:28.514Z,96955.63
2022-12-11T16:57:55.997Z,96958.38
2022-12-11T17:00:24.096Z,96954.81
2022-12-11T17:02:51.580Z,96953.97
2022-12-11T17:05:19.629Z,96960.84
2022-12-11T17:07:47.168Z,96962.63
2022-12-11T17:10:14.718Z,96959.41
2022-12-11T17:12:42.189Z,96956.75
2022-12-11T17:15:10.653Z,96972.38
2022-12-11T17:17:38.350Z,96959.34
2022-12-11T17:20:06.448Z,96968.47
2022-12-11T17:22:33.867Z,96960.03
2022-12-11T17:25:01.418Z,96963.75
2022-12-11T17:27:28.859Z,96962.75
2022-12-11T17:29:56.487Z,96960.84
2022-12-11T17:32:24.008Z,96964.19
2022-12-11T17:34:51.777Z,96949.22
2022-12-11T17:37:19.266Z,96957.00
2022-12-11T17:39:47.649Z,96956.88
2022-12-11T17:42:15.466Z,96953.66
2022-12-11T17:44:45.472Z,96961.47
2022-12-11T17:47:13.227Z,96957.88
2022-12-11T17:49:40.619Z,96970.94
2022-12-11T17:52:08.435Z,96970.56
2022-12-11T17:54:35.907Z,96964.38
2022-12-11T17:57:03.468Z,96960.97
2022-12-11T17:59:30.978Z,96969.41
2022-12-11T18:01:58.602Z,96971.06
2022-12-11T18:04:26.160Z,96975.09
2022-12-11T18:06:53.711Z,96976.56
2022-12-11T18:09:21.139Z,96968.59
2022-12-11T18:11:48.657Z,96959.34
2022-12-11T18:14:17.569Z,96967.00
2022-12-11T18:16:45.331Z,96973.19
2022-12-11T18:19:14.733Z,96965.53
2022-12-11T18:21:45.869Z,96979.84
2022-12-11T18:24:13.504Z,96975.00
2022-12-11T18:26:42.996Z,96975.00
2022-12-11T18:29:10.853Z,96965.22
2022-12-11T18:31:42.350Z,96971.38
2022-12-11T18:34:11.133Z,96971.25
2022-12-11T18:36:40.794Z,96974.28
2022-12-11T18:39:08.303Z,96976.56
2022-12-11T18:41:35.900Z,96975.28
2022-12-11T18:44:08.144Z,96969.41
2022-12-11T18:46:39.729Z,96980.63
2022-12-11T18:49:07.387Z,96976.56
2022-12-11T18:51:34.869Z,96979.47
2022-12-11T18:54:02.389Z,96966.81
2022-12-11T18:56:29.808Z,96968.09
2022-12-11T18:58:57.354Z,96976.56
2022-12-11T19:01:27.288Z,96976.88
2022-12-11T19:04:03.495Z,96968.41
2022-12-11T19:06:33.403Z,96969.72
2022-12-11T19:09:01.556Z,96956.38
2022-12-11T19:11:31.213Z,96970.34
2022-12-11T19:13:59.373Z,96956.81
2022-12-11T19:16:30.392Z,96967.91
2022-12-11T19:18:59.007Z,96966.16
2022-12-11T19:21:27.379Z,96962.56
2022-12-11T19:23:55.118Z,96966.16
2022-12-11T19:26:24.158Z,96970.06
2022-12-11T19:28:53.677Z,96965.00
2022-12-11T19:31:23.127Z,96967.09
2022-12-11T19:33:50.806Z,96962.09
2022-12-11T19:36:21.219Z,96960.34
2022-12-11T19:38:49.394Z,96959.97
2022-12-11T19:41:26.899Z,96948.59
2022-12-11T19:43:56.159Z,96954.16
2022-12-11T19:46:24.421Z,96951.22
2022-12-11T19:48:54.313Z,96944.09
2022-12-11T19:51:28.602Z,96948.78
2022-12-11T19:53:56.798Z,96945.72
2022-12-11T19:56:24.757Z,96943.75
2022-12-11T19:58:52.284Z,96944.09
2022-12-11T20:01:29.026Z,96942.75
2022-12-11T20:03:59.733Z,96950.88
2022-12-11T20:06:35.624Z,96950.88
2022-12-11T20:09:04.130Z,96946.59
2022-12-11T20:11:33.119Z,96947.28
2022-12-11T20:14:00.926Z,96946.00
2022-12-11T20:17:01.766Z,96942.25
2022-12-11T20:19:16.367Z,96944.88
2022-12-11T20:21:43.858Z,96947.31
2022-12-11T20:24:11.619Z,96946.34
2022-12-11T20:26:39.175Z,96946.16
2022-12-11T20:29:08.504Z,96946.34
2022-12-11T20:31:36.945Z,96945.72
2022-12-11T20:34:05.557Z,96953.16
2022-12-11T20:36:33.135Z,96946.47
2022-12-11T20:39:01.068Z,96950.06
2022-12-11T20:41:28.576Z,96952.84
2022-12-11T20:43:56.067Z,96954.97
2022-12-11T20:46:25.937Z,96952.53
2022-12-11T20:48:55.729Z,96958.53
2022-12-11T20:51:26.059Z,96959.97
2022-12-11T20:53:59.256Z,96949.72
2022-12-11T20:56:29.534Z,96952.16
2022-12-11T20:58:58.238Z,96951.66
2022-12-11T21:01:28.356Z,96948.25
2022-12-11T21:03:56.036Z,96951.81
2022-12-11T21:06:31.727Z,96948.41
2022-12-11T21:09:01.662Z,96957.00
2022-12-11T21:11:29.199Z,96955.53
2022-12-11T21:13:56.816Z,96944.50
2022-12-11T21:16:24.737Z,96947.09
2022-12-11T21:18:52.207Z,96950.34
2022-12-11T21:21:20.628Z,96950.34
2022-12-11T21:23:48.227Z,96953.91
2022-12-11T21:26:15.916Z,96941.09
2022-12-11T21:28:44.251Z,96941.09
2022-12-11T21:31:14.685Z,96937.19
2022-12-11T21:33:42.546Z,96941.72
2022-12-11T21:36:12.846Z,96942.03
2022-12-11T21:38:42.237Z,96944.31
2022-12-11T21:41:13.837Z,96946.13
2022-12-11T21:44:14.286Z,96936.22
2022-12-11T21:46:30.512Z,96933.47
2022-12-11T21:48:58.056Z,96938.31
2022-12-11T21:51:34.358Z,96936.53
2022-12-11T21:54:06.252Z,96931.97
2022-12-11T21:56:33.712Z,96935.56
2022-12-11T21:59:04.377Z,96926.13
2022-12-11T22:01:37.299Z,96934.72
2022-12-11T22:04:05.651Z,96931.63
2022-12-11T22:06:33.966Z,96932.59
2022-12-11T22:09:01.727Z,96931.13
2022-12-11T22:11:31.687Z,96933.38
2022-12-11T22:13:59.586Z,96933.06
2022-12-11T22:16:27.529Z,96928.53
2022-12-11T22:18:55.109Z,96923.19
2022-12-11T22:21:22.517Z,96920.28
2022-12-11T22:23:50.099Z,96930.69
2022-12-11T22:26:24.356Z,96931.13
2022-12-11T22:28:52.511Z,96926.28
2022-12-11T22:31:22.736Z,96926.41
2022-12-11T22:33:53.710Z,96936.06
2022-12-11T22:36:23.096Z,96924.31
2022-12-11T22:38:50.996Z,96923.50
2022-12-11T22:41:27.077Z,96921.09
2022-12-11T22:43:55.028Z,96923.88
2022-12-11T22:46:27.465Z,96925.66
2022-12-11T22:48:55.653Z,96930.88
2022-12-11T22:51:23.247Z,96926.97
2022-12-11T22:53:51.105Z,96919.34
2022-12-11T22:56:18.595Z,96929.06
2022-12-11T22:58:46.565Z,96924.19
2022-12-11T23:01:17.704Z,96931.66
2022-12-11T23:03:45.454Z,96931.03
2022-12-11T23:06:15.684Z,96930.38
2022-12-11T23:08:44.202Z,96925.66
2022-12-11T23:11:18.767Z,96924.38
2022-12-11T23:13:46.382Z,96933.28
2022-12-11T23:16:15.336Z,96930.25
2022-12-11T23:18:43.608Z,96927.28
2022-12-11T23:21:11.916Z,96927.13
2022-12-11T23:23:39.732Z,96925.97
2022-12-11T23:26:11.053Z,96927.94
2022-12-11T23:28:39.860Z,96927.31
2022-12-11T23:31:08.625Z,96934.28
2022-12-11T23:33:36.736Z,96933.97
2022-12-11T23:36:04.844Z,96927.78
2022-12-11T23:38:32.730Z,96936.69
2022-12-11T23:41:02.338Z,96934.28
2022-12-11T23:43:29.889Z,96926.59
2022-12-11T23:45:57.916Z,96938.81
2022-12-11T23:48:25.538Z,96933.59
2022-12-11T23:50:53.057Z,96931.66
2022-12-11T23:53:20.514Z,96931.66
2022-12-11T23:55:47.926Z,96939.13
2022-12-11T23:58:15.497Z,96928.91
